This is the latest recevied weather packets stored in our database for station/object OK4ZAW-16. If no packets are shown the sender has not sent any weather packets the latest 1 day(s).
| Time | Temp. | Humidity | Pressure | Rain* | Wind** | Luminosity | Snow |
|---|---|---|---|---|---|---|---|
| 1778003898 | 13.89° C | 56% | 1008.7 hPa | - | 0.89 m/s, 0° | 150 W/m² | - |
| 1778003481 | 13.89° C | 57% | 1008.8 hPa | - | 0.89 m/s, 0° | 150 W/m² | - |
| 1778003064 | 14.44° C | 57% | 1008.9 hPa | - | 0.89 m/s, 0° | 150 W/m² | - |
| 1778002647 | 14.44° C | 59% | 1008.9 hPa | - | 0.89 m/s, 0° | 150 W/m² | - |
| 1778002230 | 14.44° C | 60% | 1008.9 hPa | - | 0.89 m/s, 0° | 150 W/m² | - |
| 1778001813 | 14.44° C | 62% | 1008.9 hPa | - | 0.89 m/s, 0° | 150 W/m² | - |
| 1778001396 | 14.44° C | 62% | 1008.8 hPa | - | 0.89 m/s, 0° | 150 W/m² | - |
| 1778000978 | 15° C | 61% | 1008.9 hPa | - | 0.89 m/s, 0° | 150 W/m² | - |
| 1778000561 | 15° C | 60% | 1008.9 hPa | - | 0.89 m/s, 0° | 150 W/m² | - |
| 1778000144 | 15° C | 61% | 1008.9 hPa | - | 0.89 m/s, 0° | 150 W/m² | - |
| 1777999727 | 15° C | 62% | 1009 hPa | - | 0.89 m/s, 0° | 150 W/m² | - |
| 1777999310 | 15.56° C | 63% | 1009.1 hPa | - | 0.89 m/s, 0° | 150 W/m² | - |
| 1777998893 | 16.11° C | 61% | 1009.1 hPa | - | 0.89 m/s, 0° | 150 W/m² | - |
| 1777998475 | 16.67° C | 59% | 1009.2 hPa | - | 0.89 m/s, 0° | 150 W/m² | - |
| 1777998058 | 17.22° C | 57% | 1009.2 hPa | - | 0.89 m/s, 0° | 150 W/m² | - |
| 1777997641 | 17.78° C | 56% | 1009.2 hPa | - | 1.34 m/s, 0° | 150 W/m² | - |
| 1777997223 | 17.78° C | 55% | 1009.2 hPa | - | 1.34 m/s, 0° | 150 W/m² | - |
| 1777996806 | 18.33° C | 54% | 1009.1 hPa | - | 1.34 m/s, 0° | 150 W/m² | - |
| 1777996388 | 18.33° C | 53% | 1009.2 hPa | - | 1.34 m/s, 0° | 150 W/m² | - |
| 1777995970 | 18.89° C | 54% | 1009.2 hPa | - | 0.89 m/s, 0° | 150 W/m² | - |
| 1777995553 | 19.44° C | 54% | 1009.2 hPa | - | 1.34 m/s, 0° | 150 W/m² | - |
| 1777995135 | 20° C | 52% | 1009.2 hPa | - | 0.89 m/s, 0° | 150 W/m² | - |
| 1777994717 | 20° C | 52% | 1009.3 hPa | - | 1.34 m/s, 0° | 150 W/m² | - |
| 1777994299 | 20.56° C | 50% | 1009.3 hPa | - | 1.34 m/s, 0° | 150 W/m² | - |
| 1777993881 | 20.56° C | 54% | 1009.4 hPa | - | 0.89 m/s, 0° | 150 W/m² | - |
* Rain since midnight (hover to see other rain measurements)
** Current wind speed in m/s (hover to see current wind gust speed)